Time;durP1;ratioP1;P1;durP2;ratioP2;P2;SDS_P1;SDS_P2;PMS_P1;PMS_P2;Temp;Humidity;BMP_temperature;BMP_pressure;BME280_temperature;BME280_humidity;BME280_pressure;Samples;Min_cycle;Max_cycle;Signal;HPM_P1;HPM_P2
2022/02/08 00:00:06;;;;;;;21.33;4.75;;;;;;;2.37;75.83;100984.05;1698992;82;21002;-73
2022/02/08 00:02:36;;;;;;;22.95;5.35;;;;;;;2.40;75.83;100981.68;1748713;82;21068;-73
2022/02/08 00:05:03;;;;;;;14.53;4.33;;;;;;;2.43;75.84;100985.41;1750010;81;20983;-73
2022/02/08 00:07:31;;;;;;;24.10;4.10;;;;;;;2.42;75.87;100987.23;1741840;82;21107;-73
2022/02/08 00:09:57;;;;;;;23.92;5.62;;;;;;;2.47;75.86;100990.84;1718395;82;20999;-73
2022/02/08 00:12:23;;;;;;;23.27;4.95;;;;;;;2.44;75.88;100991.91;1718894;83;21022;-73
2022/02/08 00:14:51;;;;;;;26.45;5.45;;;;;;;2.42;75.91;100998.23;1718360;83;21082;-73
2022/02/08 00:17:17;;;;;;;24.77;4.65;;;;;;;2.39;75.90;100990.05;1718765;83;21010;-72
2022/02/08 00:19:43;;;;;;;18.17;4.85;;;;;;;2.37;75.92;100993.27;1718779;83;21490;-73
2022/02/08 00:22:09;;;;;;;20.35;5.70;;;;;;;2.38;75.93;100999.37;1718506;83;21088;-72
2022/02/08 00:24:35;;;;;;;19.77;5.20;;;;;;;2.34;75.94;101007.95;1718672;83;20987;-73
2022/02/08 00:27:01;;;;;;;15.20;4.92;;;;;;;2.30;75.96;101006.46;1718180;83;21058;-73
2022/02/08 00:29:27;;;;;;;21.00;4.83;;;;;;;2.27;75.98;101013.25;1718990;83;21033;-73
2022/02/08 00:31:53;;;;;;;21.10;6.47;;;;;;;2.27;76.01;101018.52;1720208;82;21134;-72
2022/02/08 00:34:19;;;;;;;24.18;7.00;;;;;;;2.27;76.02;101018.98;1719311;83;21053;-72
2022/02/08 00:36:45;;;;;;;21.52;5.30;;;;;;;2.24;76.07;101027.93;1685667;84;21395;-73
2022/02/08 00:39:12;;;;;;;19.70;6.78;;;;;;;2.24;76.08;101030.56;1685472;85;21019;-72
2022/02/08 00:41:38;;;;;;;18.17;5.40;;;;;;;2.23;76.11;101032.81;1685494;85;21601;-72
2022/02/08 00:44:10;;;;;;;22.05;5.80;;;;;;;2.23;76.13;101032.81;1720009;83;21153;-72
2022/02/08 00:49:10;;;;;;;15.75;3.80;;;;;;;2.20;76.20;101038.75;1720207;83;21461;-72
2022/02/08 00:51:46;;;;;;;17.73;3.70;;;;;;;2.13;76.25;101044.89;1720171;82;21006;-72
2022/02/08 00:54:08;;;;;;;18.27;3.70;;;;;;;2.09;76.27;101043.40;1728145;82;21145;-72
2022/02/08 00:56:34;;;;;;;18.95;4.12;;;;;;;2.08;76.32;101052.22;1719750;82;21125;-72
2022/02/08 00:59:00;;;;;;;21.15;3.90;;;;;;;2.04;76.35;101053.39;1685953;84;21476;-72
2022/02/08 01:01:26;;;;;;;16.37;3.10;;;;;;;2.03;76.37;101058.73;1672768;85;21050;-72
2022/02/08 01:03:52;;;;;;;14.78;2.85;;;;;;;2.00;76.39;101069.00;1711362;82;21045;-72
2022/02/08 01:06:20;;;;;;;18.15;4.12;;;;;;;1.99;76.42;101055.47;1713322;83;21093;-72
2022/02/08 01:08:46;;;;;;;26.50;8.05;;;;;;;1.96;76.46;101079.34;1712922;82;21850;-72
2022/02/08 01:11:13;;;;;;;25.08;4.42;;;;;;;1.94;76.50;101079.89;1695144;84;20960;-72
2022/02/08 01:13:40;;;;;;;21.50;3.67;;;;;;;1.89;76.54;101085.93;1695114;84;21074;-72
2022/02/08 01:16:07;;;;;;;24.32;5.83;;;;;;;1.88;76.58;101088.17;1694533;84;21098;-72
2022/02/08 01:18:37;;;;;;;20.50;4.17;;;;;;;1.87;76.64;101095.69;1693883;83;21492;-72
2022/02/08 01:21:01;;;;;;;17.95;4.67;;;;;;;1.84;76.66;101101.14;1712550;83;21164;-73
2022/02/08 01:23:27;;;;;;;23.25;4.40;;;;;;;1.81;76.74;101100.02;1713218;83;21006;-72
2022/02/08 01:25:57;;;;;;;13.62;3.55;;;;;;;1.78;76.76;101099.76;1701636;83;33735;-72
2022/02/08 01:36:26;;;;;;;25.08;4.28;;;;;;;1.71;76.98;101114.70;1695070;84;21051;-73
2022/02/08 01:38:38;;;;;;;14.33;2.95;;;;;;;1.69;77.03;101112.64;1709766;83;21058;-73
2022/02/08 01:41:29;;;;;;;15.03;3.52;;;;;;;1.69;77.09;101107.39;1707663;83;21473;-72
2022/02/08 01:48:50;;;;;;;13.98;3.17;;;;;;;1.67;77.26;101112.73;1691866;83;21516;-73
2022/02/08 01:51:12;;;;;;;28.57;3.85;;;;;;;1.65;77.32;101121.66;1692924;83;21015;-73
2022/02/08 01:53:38;;;;;;;24.87;4.50;;;;;;;1.62;77.38;101116.59;1691989;84;21027;-73
2022/02/08 01:56:04;;;;;;;24.98;5.12;;;;;;;1.59;77.43;101116.76;1691807;84;20948;-73
2022/02/08 01:58:30;;;;;;;29.65;3.80;;;;;;;1.56;77.49;101122.21;1692097;84;21144;-73
2022/02/08 02:00:56;;;;;;;13.10;3.52;;;;;;;1.55;77.54;101117.91;1693532;84;20993;-73
2022/02/08 02:03:22;;;;;;;17.32;2.70;;;;;;;1.51;77.57;101118.58;1689176;84;20979;-73
2022/02/08 02:05:52;;;;;;;18.52;3.85;;;;;;;1.50;77.66;101124.30;1684974;83;21027;-73
2022/02/08 02:08:19;;;;;;;24.50;4.42;;;;;;;1.50;77.70;101132.18;1682970;83;21066;-72
2022/02/08 02:10:45;;;;;;;24.98;6.00;;;;;;;1.50;77.76;101120.36;1686031;83;21179;-72
2022/02/08 02:13:33;;;;;;;23.83;3.62;;;;;;;1.51;77.82;101134.34;1719644;83;20976;-73
2022/02/08 02:15:40;;;;;;;16.87;3.65;;;;;;;1.47;77.85;101133.69;1710807;82;21003;-73
2022/02/08 02:18:06;;;;;;;16.45;3.27;;;;;;;1.47;77.95;101137.63;1663948;85;21028;-72
2022/02/08 02:20:33;;;;;;;16.87;3.10;;;;;;;1.44;77.98;101128.59;1684570;85;20908;-73
2022/02/08 02:22:59;;;;;;;22.25;4.17;;;;;;;1.43;78.04;101136.13;1685515;85;21224;-72
2022/02/08 02:25:29;;;;;;;17.57;3.33;;;;;;;1.42;78.10;101143.62;1685547;85;21051;-72
2022/02/08 02:27:57;;;;;;;20.57;4.33;;;;;;;1.42;78.16;101138.83;1719645;83;21057;-73
2022/02/08 02:30:25;;;;;;;25.70;4.45;;;;;;;1.41;78.25;101132.72;1689846;83;21019;-73
2022/02/08 02:32:51;;;;;;;22.55;4.17;;;;;;;1.43;78.29;101135.27;1698313;83;21027;-73
2022/02/08 02:35:17;;;;;;;29.18;3.83;;;;;;;1.42;78.35;101135.73;1685414;85;21087;-73
2022/02/08 02:37:43;;;;;;;12.37;2.95;;;;;;;1.44;78.43;101131.72;1704983;83;21542;-73
2022/02/08 02:40:12;;;;;;;19.62;2.80;;;;;;;1.47;78.50;101134.16;1703264;84;21472;-73
2022/02/08 02:42:38;;;;;;;21.57;4.08;;;;;;;1.51;78.57;101142.23;1703286;84;21082;-73
2022/02/08 02:45:07;;;;;;;18.10;3.40;;;;;;;1.49;78.62;101143.62;1703402;84;21039;-73
2022/02/08 02:47:33;;;;;;;19.02;4.10;;;;;;;1.49;78.70;101148.87;1703373;84;21203;-73
2022/02/08 02:49:59;;;;;;;25.17;3.85;;;;;;;1.48;78.76;101153.75;1703349;84;21066;-73
2022/02/08 02:52:25;;;;;;;19.20;2.60;;;;;;;1.45;78.81;101151.31;1703501;84;20904;-73
2022/02/08 02:54:51;;;;;;;15.45;3.40;;;;;;;1.44;78.85;101153.55;1703563;84;21004;-73
2022/02/08 02:57:18;;;;;;;18.32;3.12;;;;;;;1.43;78.89;101165.03;1703439;83;21587;-73
2022/02/08 02:59:47;;;;;;;23.45;3.98;;;;;;;1.40;78.96;101163.91;1683946;85;21274;-72
2022/02/08 03:02:29;;;;;;;21.87;6.33;;;;;;;1.45;79.01;101172.34;1683479;83;21087;-73
2022/02/08 03:04:51;;;;;;;22.32;5.20;;;;;;;1.50;79.07;101182.11;1671034;85;21084;-73
2022/02/08 03:19:06;;;;;;;22.98;4.35;;;;;;;1.87;79.39;101185.09;1717479;83;20990;-72
2022/02/08 03:20:42;;;;;;;23.83;4.22;;;;;;;1.96;79.44;101181.45;1695143;83;21002;-72
2022/02/08 03:23:08;;;;;;;26.70;3.87;;;;;;;2.06;79.49;101182.17;1717728;83;21487;-72
2022/02/08 03:25:35;;;;;;;19.42;3.92;;;;;;;2.13;79.54;101181.69;1727687;83;21553;-72
2022/02/08 03:28:01;;;;;;;22.22;4.62;;;;;;;2.18;79.59;101179.59;1727763;83;21479;-72
2022/02/08 03:30:27;;;;;;;15.65;3.65;;;;;;;2.21;79.59;101189.10;1727737;83;21494;-72
2022/02/08 03:32:54;;;;;;;29.85;4.50;;;;;;;2.19;79.63;101190.50;1717605;83;20974;-72
2022/02/08 03:35:21;;;;;;;14.33;3.52;;;;;;;2.15;79.65;101183.73;1704814;84;21062;-72
2022/02/08 03:38:00;;;;;;;26.70;3.52;;;;;;;2.15;79.69;101198.20;1685460;85;21639;-72
2022/02/08 03:40:29;;;;;;;18.45;3.35;;;;;;;2.13;79.72;101197.94;1679470;85;21143;-72
2022/02/08 03:42:58;;;;;;;26.57;3.42;;;;;;;2.11;79.73;101203.78;1688345;83;21007;-72
2022/02/08 03:45:13;;;;;;;23.65;4.50;;;;;;;2.09;79.76;101209.13;1708665;83;21504;-72
2022/02/08 03:47:39;;;;;;;31.77;6.80;;;;;;;2.08;79.78;101215.32;1713687;83;21044;-72
2022/02/08 03:50:06;;;;;;;16.93;4.05;;;;;;;2.06;79.79;101218.53;1750059;82;21526;-72
2022/02/08 03:52:33;;;;;;;31.45;5.67;;;;;;;2.05;79.83;101208.94;1749597;81;21526;-72
2022/02/08 03:54:59;;;;;;;23.18;4.87;;;;;;;2.07;79.87;101216.75;1750289;82;20978;-72
2022/02/08 03:57:26;;;;;;;13.65;3.70;;;;;;;2.08;79.87;101228.47;1750123;81;21451;-72
2022/02/08 03:59:52;;;;;;;21.40;3.98;;;;;;;2.11;79.92;101223.02;1749931;82;21467;-72
2022/02/08 04:02:41;;;;;;;21.02;4.28;;;;;;;2.14;79.94;101226.80;1749627;82;21256;-72
2022/02/08 04:07:38;;;;;;;26.07;4.05;;;;;;;2.16;80.00;101220.95;1723300;83;20990;-72
2022/02/08 04:10:04;;;;;;;23.57;3.75;;;;;;;2.18;80.03;101216.92;1721966;81;21014;-71
2022/02/08 04:12:37;;;;;;;18.80;3.52;;;;;;;2.19;80.05;101221.22;1723049;83;21559;-72
2022/02/08 04:15:19;;;;;;;17.55;4.78;;;;;;;2.19;80.09;101214.18;1711205;83;21113;-72
2022/02/08 04:17:42;;;;;;;21.82;4.28;;;;;;;2.19;80.12;101219.44;1690159;84;21636;-72
2022/02/08 04:35:45;;;;;;;22.58;6.62;;;;;;;2.29;80.33;101227.59;1694273;84;21011;-72
2022/02/08 04:43:07;;;;;;;26.62;5.03;;;;;;;;;;1694261;84;21034;-72
2022/02/08 04:45:48;;;;;;;34.27;9.60;;;;;;;2.32;80.42;101233.51;1692916;84;21026;-72
2022/02/08 04:48:16;;;;;;;26.48;5.00;;;;;;;2.32;80.43;101233.51;1692524;84;21605;-72
2022/02/08 04:50:36;;;;;;;22.35;4.97;;;;;;;2.29;80.44;101235.48;1692806;84;21031;-72
2022/02/08 04:53:09;;;;;;;19.20;4.03;;;;;;;2.27;80.44;101230.34;1693162;84;21789;-72
2022/02/08 04:58:33;;;;;;;18.20;3.87;;;;;;;2.24;80.49;101237.12;1688271;85;21027;-73
2022/02/08 05:36:54;;;;;;;26.40;7.53;;;;;;;2.22;80.66;101211.35;1719970;82;21019;-73
2022/02/08 05:41:46;;;;;;;21.05;7.40;;;;;;;2.24;80.65;101208.64;1663585;85;21094;-73
2022/02/08 05:44:26;;;;;;;18.15;7.05;;;;;;;2.25;80.67;101207.20;1718153;83;21257;-73
2022/02/08 05:46:54;;;;;;;25.05;9.13;;;;;;;2.27;80.67;101200.55;1715694;83;21272;-73
2022/02/08 05:49:09;;;;;;;38.88;15.18;;;;;;;2.26;80.66;101197.06;1714000;82;21006;-73
2022/02/08 05:54:16;;;;;;;19.15;7.37;;;;;;;2.26;80.69;101198.38;1720070;83;21031;-73
2022/02/08 05:56:42;;;;;;;19.65;5.37;;;;;;;2.24;80.68;101189.75;1725240;82;21030;-73
2022/02/08 05:59:09;;;;;;;21.80;4.22;;;;;;;2.23;80.69;101189.37;1720103;83;21035;-73
2022/02/08 06:01:35;;;;;;;18.87;4.03;;;;;;;2.23;80.70;101190.69;1687786;84;21071;-73
2022/02/08 06:04:02;;;;;;;14.95;3.98;;;;;;;2.24;80.70;101198.11;1716990;82;21466;-72
2022/02/08 06:06:32;;;;;;;14.33;3.00;;;;;;;2.24;80.71;101189.75;1717693;82;21027;-73
2022/02/08 06:08:56;;;;;;;16.60;3.67;;;;;;;2.25;80.70;101190.60;1716006;82;21109;-73
2022/02/08 06:11:24;;;;;;;16.75;3.35;;;;;;;2.24;80.74;101189.75;1704685;84;21152;-73
2022/02/08 06:13:52;;;;;;;19.65;3.77;;;;;;;2.23;80.75;101173.58;1675173;85;21111;-73
2022/02/08 06:16:20;;;;;;;19.05;4.53;;;;;;;2.24;80.77;101178.38;1704599;84;21022;-73
2022/02/08 06:18:46;;;;;;;19.15;5.03;;;;;;;2.24;80.80;101183.17;1675115;85;21500;-73
2022/02/08 06:21:12;;;;;;;20.00;5.05;;;;;;;2.25;80.81;101175.63;1704819;84;21002;-73
2022/02/08 06:23:39;;;;;;;15.10;5.53;;;;;;;2.28;80.82;101179.41;1674784;85;21085;-73
2022/02/08 06:26:05;;;;;;;17.07;4.08;;;;;;;2.30;80.85;101175.34;1704904;84;20935;-73
2022/02/08 06:28:31;;;;;;;18.75;8.23;;;;;;;2.33;80.87;101181.26;1674942;85;20937;-72
2022/02/08 06:30:57;;;;;;;17.87;4.92;;;;;;;2.35;80.89;101175.91;1704417;84;21066;-72
2022/02/08 06:33:23;;;;;;;23.02;7.67;;;;;;;2.36;80.91;101181.06;1685234;85;21020;-72
2022/02/08 06:35:49;;;;;;;18.98;6.03;;;;;;;2.38;80.91;101181.82;1683529;85;21140;-72
2022/02/08 06:38:17;;;;;;;25.40;7.15;;;;;;;2.41;80.96;101183.41;1720151;83;21065;-72
2022/02/08 06:40:46;;;;;;;18.85;6.45;;;;;;;2.42;80.98;101188.58;1720166;83;20995;-72
2022/02/08 06:43:11;;;;;;;20.68;4.53;;;;;;;2.41;80.99;101178.98;1717576;83;21459;-72
2022/02/08 06:45:37;;;;;;;17.32;4.55;;;;;;;2.43;81.00;101178.88;1717447;82;20986;-72
2022/02/08 06:48:05;;;;;;;21.02;5.40;;;;;;;2.45;81.03;101184.43;1717771;83;21127;-73
2022/02/08 06:50:31;;;;;;;17.77;5.05;;;;;;;2.47;81.01;101182.53;1727390;83;21060;-72
2022/02/08 06:52:57;;;;;;;18.40;5.05;;;;;;;2.53;81.04;101188.36;1727255;83;21099;-72
2022/02/08 06:55:25;;;;;;;25.80;8.00;;;;;;;2.55;81.05;101179.87;1727597;83;21071;-72
2022/02/08 06:58:05;;;;;;;25.43;10.45;;;;;;;2.56;81.08;101174.98;1727894;83;21477;-72
2022/02/08 07:00:37;;;;;;;21.93;7.55;;;;;;;2.55;81.08;101172.83;1717764;83;21104;-73
2022/02/08 07:03:05;;;;;;;19.37;5.05;;;;;;;2.57;81.10;101175.38;1717040;82;21086;-73
2022/02/08 07:05:31;;;;;;;33.00;9.73;;;;;;;2.59;81.22;101165.11;1714556;81;20955;-73
2022/02/08 07:07:57;;;;;;;19.45;5.92;;;;;;;2.59;81.22;101165.11;1714835;83;21435;-73
2022/02/08 07:10:24;;;;;;;20.25;5.60;;;;;;;2.62;81.10;101165.37;1715049;82;21037;-73
2022/02/08 07:12:51;;;;;;;21.33;4.70;;;;;;;2.65;81.09;101165.16;1714713;83;21136;-73
2022/02/08 07:15:18;;;;;;;16.82;4.15;;;;;;;2.68;81.07;101164.95;1714689;83;21543;-73
2022/02/08 07:17:44;;;;;;;17.73;5.03;;;;;;;2.70;81.08;101173.62;1714879;83;21009;-73
2022/02/08 07:20:11;;;;;;;16.57;5.42;;;;;;;2.73;81.07;101168.14;1714803;83;21034;-73
2022/02/08 07:22:37;;;;;;;15.93;3.90;;;;;;;2.75;81.07;101159.19;1715078;82;21021;-73
2022/02/08 07:25:04;;;;;;;18.57;3.58;;;;;;;2.78;81.06;101162.12;1714813;82;21315;-73
2022/02/08 07:27:30;;;;;;;24.90;5.60;;;;;;;2.79;81.04;101160.68;1714902;83;21479;-73
2022/02/08 07:29:56;;;;;;;21.65;5.75;;;;;;;2.81;81.01;101164.54;1714935;83;21474;-73
2022/02/08 07:32:33;;;;;;;13.10;3.90;;;;;;;2.85;80.99;101156.81;1714821;82;20999;-73
2022/02/08 07:35:46;;;;;;;33.85;10.35;;;;;;;2.85;80.98;101152.86;1714160;82;21097;-73
2022/02/08 07:37:44;;;;;;;25.65;6.67;;;;;;;2.87;80.92;101156.22;1684103;83;21219;-73
2022/02/08 07:39:54;;;;;;;22.50;7.75;;;;;;;2.88;80.92;101161.41;1712148;83;20981;-73
2022/02/08 07:42:20;;;;;;;24.12;7.12;;;;;;;2.90;80.85;101157.33;1714545;83;21531;-73
2022/02/08 07:44:46;;;;;;;17.95;6.75;;;;;;;2.90;80.82;101154.70;1714754;82;21551;-73
2022/02/08 07:47:13;;;;;;;24.47;5.47;;;;;;;2.93;80.79;101154.48;1714774;82;21013;-73
2022/02/08 07:49:40;;;;;;;18.57;4.95;;;;;;;2.95;80.76;101154.78;1714661;82;21149;-73
2022/02/08 07:52:07;;;;;;;13.35;4.65;;;;;;;3.00;80.69;101154.45;1714983;83;21643;-73
2022/02/08 07:54:33;;;;;;;18.85;9.95;;;;;;;3.04;80.64;101148.03;1714479;82;21495;-73
2022/02/08 07:57:00;;;;;;;12.33;4.58;;;;;;;3.07;80.60;101153.09;1714924;83;21545;-73
2022/02/08 07:59:26;;;;;;;19.02;4.83;;;;;;;3.09;80.56;101148.58;1714648;82;21049;-73
2022/02/08 08:01:52;;;;;;;17.07;4.20;;;;;;;3.11;80.50;101139.23;1714842;83;21270;-73
2022/02/08 08:04:18;;;;;;;12.98;4.62;;;;;;;3.12;80.43;101144.41;1718787;81;21009;-73
2022/02/08 08:06:44;;;;;;;18.10;6.78;;;;;;;3.16;80.39;101141.09;1736097;82;21013;-73
2022/02/08 08:09:10;;;;;;;18.95;6.72;;;;;;;3.18;80.33;101136.55;1738017;82;21033;-73
2022/02/08 08:11:39;;;;;;;22.77;6.70;;;;;;;3.22;80.28;101132.30;1738242;82;21084;-73
2022/02/08 08:14:06;;;;;;;17.62;8.23;;;;;;;3.26;80.20;101136.41;1738059;82;21233;-73
2022/02/08 08:19:22;;;;;;;11.87;4.07;;;;;;;3.34;80.08;101134.06;1738325;82;21092;-73
2022/02/08 08:21:47;;;;;;;15.40;4.22;;;;;;;3.36;80.00;101128.70;1737452;82;21025;-73
2022/02/08 08:24:13;;;;;;;17.90;5.35;;;;;;;3.35;79.92;101131.81;1698753;83;21057;-73
2022/02/08 08:26:40;;;;;;;11.53;4.80;;;;;;;3.36;79.87;101133.97;1676482;84;21180;-73
2022/02/08 08:29:06;;;;;;;18.17;5.92;;;;;;;3.37;79.80;101141.79;1647714;86;21046;-72
2022/02/08 08:31:33;;;;;;;22.85;7.10;;;;;;;3.38;79.73;101136.86;1694657;84;21037;-72
2022/02/08 08:33:59;;;;;;;19.87;7.72;;;;;;;3.39;79.65;101131.97;1660428;85;21130;-73
2022/02/08 08:36:28;;;;;;;13.83;5.08;;;;;;;3.42;79.59;101122.53;1696753;84;21044;-73
2022/02/08 08:38:54;;;;;;;17.32;5.85;;;;;;;3.49;79.51;101129.06;1684656;85;21339;-73
2022/02/08 08:41:27;;;;;;;18.82;6.92;;;;;;;3.53;79.45;101131.86;1702439;83;21016;-73
2022/02/08 08:51:50;;;;;;;22.45;7.67;;;;;;;3.55;79.25;101104.55;1704857;83;21765;-73
2022/02/08 08:54:15;;;;;;;20.37;6.47;;;;;;;3.55;79.20;101098.80;1704582;84;20979;-73
2022/02/08 08:56:43;;;;;;;17.65;4.83;;;;;;;3.56;79.12;101089.07;1704911;84;21015;-73
2022/02/08 08:59:10;;;;;;;13.85;4.62;;;;;;;3.60;79.09;101104.58;1704761;84;21015;-73
2022/02/08 09:01:36;;;;;;;13.25;4.37;;;;;;;3.76;79.06;101095.12;1704996;84;21074;-73
2022/02/08 09:04:03;;;;;;;16.82;5.60;;;;;;;3.89;78.99;101091.95;1704797;83;21107;-73
2022/02/08 09:06:31;;;;;;;12.15;4.58;;;;;;;4.05;78.97;101089.88;1704180;83;21007;-73
2022/02/08 09:08:57;;;;;;;11.18;3.87;;;;;;;4.19;78.94;101081.80;1704549;82;21003;-73
2022/02/08 09:16:37;;;;;;;14.95;5.55;;;;;;;4.44;78.74;101094.04;1704735;84;21177;-73
2022/02/08 09:29:21;;;;;;;18.05;4.67;;;;;;;4.83;78.37;101071.72;1704533;84;21125;-73
2022/02/08 09:31:39;;;;;;;16.95;5.50;;;;;;;4.91;78.31;101083.88;1703510;84;21066;-73
2022/02/08 09:34:05;;;;;;;17.17;6.03;;;;;;;4.87;78.18;101075.81;1704796;84;21014;-73
2022/02/08 09:36:31;;;;;;;18.95;7.30;;;;;;;4.86;78.11;101078.93;1705050;84;21064;-73
2022/02/08 09:38:57;;;;;;;16.87;5.12;;;;;;;4.86;78.07;101072.80;1704806;84;21041;-73
2022/02/08 09:41:24;;;;;;;15.88;5.28;;;;;;;4.87;78.05;101074.49;1704654;84;21098;-73
2022/02/08 09:43:51;;;;;;;19.00;4.55;;;;;;;4.87;77.96;101071.85;1704718;84;21526;-73
2022/02/08 09:46:17;;;;;;;17.07;4.78;;;;;;;4.86;77.90;101060.91;1704745;83;21006;-73
2022/02/08 09:48:55;;;;;;;9.15;3.72;;;;;;;4.90;77.89;101070.30;1704680;83;21106;-73
2022/02/08 09:51:18;;;;;;;10.43;3.55;;;;;;;4.86;77.83;101067.52;1704021;84;20992;-72
2022/02/08 09:53:44;;;;;;;15.95;5.35;;;;;;;4.82;77.78;101060.81;1704148;83;21211;-70
2022/02/08 09:56:12;;;;;;;11.10;4.87;;;;;;;4.81;77.75;101057.80;1699479;84;21020;-70
2022/02/08 09:58:38;;;;;;;13.30;4.80;;;;;;;4.85;77.74;101050.00;1704177;83;21596;-70
2022/02/08 10:01:21;;;;;;;10.95;4.10;;;;;;;4.93;77.70;101039.66;1704711;83;21523;-71
2022/02/08 10:03:59;;;;;;;15.38;4.78;;;;;;;4.98;77.65;101048.09;1704862;83;21070;-71
2022/02/08 10:06:27;;;;;;;16.40;5.22;;;;;;;5.02;77.63;101049.55;1677711;83;21152;-71
2022/02/08 10:09:08;;;;;;;20.95;7.20;;;;;;;5.02;77.63;101031.04;1695323;82;21006;-71
2022/02/08 10:11:54;;;;;;;25.80;7.35;;;;;;;5.08;77.63;101037.16;1700016;84;20994;-71
2022/02/08 10:22:32;;;;;;;9.15;4.03;;;;;;;4.96;77.64;101031.52;1696431;84;21086;-71
2022/02/08 10:25:07;;;;;;;17.17;5.20;;;;;;;4.92;77.66;101034.03;1696165;84;21086;-70
2022/02/08 10:27:37;;;;;;;11.53;3.95;;;;;;;4.85;77.67;101038.95;1694168;84;21533;-71
2022/02/08 10:37:37;;;;;;;14.05;4.97;;;;;;;4.76;77.80;101033.03;1729510;81;21169;-70
2022/02/08 10:37:49;;;;;;;11.70;4.12;;;;;;;4.64;78.07;101027.86;1694653;83;21007;-70
2022/02/08 10:40:19;;;;;;;8.00;3.22;;;;;;;4.57;78.21;101034.56;1706365;82;21082;-70
2022/02/08 10:43:03;;;;;;;;;;;;;;;4.47;78.39;101022.03;1698581;84;21509;-71
2022/02/08 10:45:38;;;;;;;18.95;8.98;;;;;;;4.38;78.55;101024.53;1685064;83;21190;-71
2022/02/08 10:48:10;;;;;;;10.18;6.28;;;;;;;4.38;78.77;101005.58;1678100;84;21532;-71
2022/02/08 10:50:44;;;;;;;12.90;6.03;;;;;;;4.40;79.00;100993.08;1713525;83;21010;-70
2022/02/08 10:53:11;;;;;;;17.85;8.18;;;;;;;4.40;79.18;100995.72;1713792;83;21447;-70
2022/02/08 10:55:55;;;;;;;12.10;5.40;;;;;;;4.47;79.41;101000.06;1713862;83;21014;-71
2022/02/08 11:03:15;;;;;;;12.10;4.75;;;;;;;4.43;80.00;100993.36;1714024;83;21002;-71
2022/02/08 11:05:46;;;;;;;10.80;4.30;;;;;;;4.41;80.17;101004.02;1680909;83;21046;-71
2022/02/08 11:20:49;;;;;;;5.50;2.90;;;;;;;4.40;81.14;100986.48;1654612;86;21457;-69
2022/02/08 11:23:37;;;;;;;7.72;3.42;;;;;;;4.39;81.25;100989.26;1698984;82;21172;-71
2022/02/08 11:26:01;;;;;;;4.37;3.12;;;;;;;4.37;81.38;100970.03;1722064;82;20990;-71
2022/02/08 11:28:38;;;;;;;6.30;3.33;;;;;;;4.36;81.51;100967.87;1703243;84;21119;-71
2022/02/08 11:31:13;;;;;;;5.90;3.25;;;;;;;4.35;81.59;100970.17;1705343;83;21127;-71
2022/02/08 11:50:45;;;;;;;6.55;2.60;;;;;;;4.43;82.47;100946.64;1699121;84;21800;-70
2022/02/08 11:53:18;;;;;;;5.85;2.95;;;;;;;4.47;82.59;100945.45;1702856;83;21076;-70
2022/02/08 11:55:51;;;;;;;8.23;2.92;;;;;;;4.51;82.73;100946.05;1701652;84;21467;-70
2022/02/08 11:58:42;;;;;;;6.55;3.00;;;;;;;4.51;82.81;100939.45;1701988;83;21042;-70
2022/02/08 12:00:45;;;;;;;5.85;2.90;;;;;;;4.50;82.90;100946.53;1689199;84;21006;-70
2022/02/08 12:06:25;;;;;;;7.70;4.37;;;;;;;4.50;83.11;100928.55;1704842;83;21006;-70
2022/02/08 12:08:34;;;;;;;11.38;3.72;;;;;;;4.51;83.20;100925.77;1697000;82;21161;-70
2022/02/08 12:11:45;;;;;;;8.53;3.87;;;;;;;4.54;83.31;100913.65;1704640;84;21185;-70
2022/02/08 12:33:08;;;;;;;6.15;3.58;;;;;;;4.81;83.97;100921.72;1704519;83;21082;-70
2022/02/08 12:35:52;;;;;;;11.43;6.87;;;;;;;4.84;84.03;100919.67;1702550;83;21002;-70
2022/02/08 12:39:45;;;;;;;6.83;3.65;;;;;;;4.89;84.08;100924.61;1690518;84;21008;-71
2022/02/08 12:54:56;;;;;;;5.75;3.17;;;;;;;4.84;84.52;100890.61;1717844;83;21500;-71
2022/02/08 13:03:03;;;;;;;6.10;3.10;;;;;;;4.79;84.74;100904.66;1686963;84;21105;-71
2022/02/08 13:32:26;;;;;;;6.72;3.12;;;;;;;4.82;85.39;100904.91;1690343;84;21059;-71
2022/02/08 14:03:28;;;;;;;9.45;6.45;;;;;;;5.10;86.25;100889.87;1704865;82;21006;-71
2022/02/08 14:16:10;;;;;;;7.72;4.10;;;;;;;5.12;86.46;100881.32;1751912;82;21002;-71
2022/02/08 14:21:17;;;;;;;7.47;2.55;;;;;;;5.16;86.57;100878.80;1751835;82;21034;-71
2022/02/08 14:23:54;;;;;;;8.50;4.62;;;;;;;5.17;86.61;100871.23;1712714;83;21082;-71
2022/02/08 14:31:39;;;;;;;8.58;4.08;;;;;;;5.23;86.74;100887.91;1752000;82;21745;-71
2022/02/08 14:34:13;;;;;;;8.65;4.65;;;;;;;5.24;86.79;100882.95;1710119;82;21606;-71
2022/02/08 14:36:54;;;;;;;9.50;6.15;;;;;;;5.26;86.83;100881.05;1747836;80;20982;-71
2022/02/08 14:57:36;;;;;;;11.35;5.30;;;;;;;5.31;86.99;100878.86;1751889;82;21649;-71
2022/02/08 14:59:16;;;;;;;11.43;4.55;;;;;;;5.32;87.08;100880.55;1751927;82;21054;-71
2022/02/08 15:06:12;;;;;;;11.33;4.58;;;;;;;5.33;87.21;100866.84;1751759;82;21453;-71
2022/02/08 15:08:30;;;;;;;9.40;5.00;;;;;;;5.33;87.25;100879.59;1744688;82;21520;-71
2022/02/08 15:11:02;;;;;;;10.88;7.75;;;;;;;5.33;87.30;100885.35;1746413;81;21123;-71
2022/02/08 15:13:26;;;;;;;13.78;8.33;;;;;;;5.34;87.33;100883.92;1761718;81;21045;-71
2022/02/08 15:18:28;;;;;;;16.65;10.80;;;;;;;5.34;87.41;100878.63;1763385;81;21046;-71
2022/02/08 15:20:54;;;;;;;12.55;9.00;;;;;;;5.36;87.46;100884.63;1763501;79;20998;-72
2022/02/08 15:23:21;;;;;;;13.43;7.78;;;;;;;5.36;87.48;100884.63;1763687;81;21156;-71
2022/02/08 15:25:54;;;;;;;15.88;6.87;;;;;;;5.36;87.55;100879.34;1763332;81;21021;-71
2022/02/08 15:28:19;;;;;;;28.57;12.30;;;;;;;5.35;87.57;100872.36;1763160;81;21041;-71
2022/02/08 15:30:45;;;;;;;18.30;9.73;;;;;;;5.35;87.63;100864.42;1763136;81;21046;-71
2022/02/08 15:33:11;;;;;;;25.08;12.07;;;;;;;5.36;87.67;100870.08;1763551;81;21526;-71
2022/02/08 15:35:38;;;;;;;22.50;10.58;;;;;;;5.38;87.72;100865.48;1763106;81;21987;-71
2022/02/08 15:38:06;;;;;;;16.65;8.80;;;;;;;5.35;87.75;100864.42;1763275;81;20998;-71
2022/02/08 15:40:33;;;;;;;19.57;11.60;;;;;;;5.36;87.79;100863.47;1763246;81;21495;-71
2022/02/08 15:43:00;;;;;;;17.37;9.35;;;;;;;5.38;87.82;100866.00;1763399;81;21018;-71
2022/02/08 15:45:31;;;;;;;19.48;7.75;;;;;;;5.40;87.87;100874.64;1763324;81;21021;-71
2022/02/08 15:47:56;;;;;;;17.17;8.60;;;;;;;5.40;87.88;100868.87;1762554;81;21341;-71
2022/02/08 15:51:14;;;;;;;14.85;7.35;;;;;;;5.43;87.92;100877.87;1763305;80;20975;-71
2022/02/08 15:56:08;;;;;;;18.80;8.40;;;;;;;5.48;88.01;100853.22;1763090;81;21124;-71
2022/02/08 16:08:46;;;;;;;23.10;9.50;;;;;;;5.57;88.12;100857.37;1728129;81;21030;-70
2022/02/08 16:14:00;;;;;;;19.60;7.12;;;;;;;5.62;88.18;100863.14;1687473;83;21128;-71
2022/02/08 16:16:46;;;;;;;15.70;6.55;;;;;;;5.64;88.17;100870.45;1702583;82;21011;-71
2022/02/08 16:24:07;;;;;;;22.62;8.45;;;;;;;5.71;88.19;100886.17;1693071;83;21609;-71
2022/02/08 16:26:41;;;;;;;34.90;12.88;;;;;;;5.71;88.19;100881.73;1701556;82;21179;-71
2022/02/08 16:29:13;;;;;;;28.17;11.50;;;;;;;5.74;88.19;100881.95;1695959;82;21040;-71
2022/02/08 16:46:02;;;;;;;35.63;12.95;;;;;;;5.78;88.19;100883.38;1684691;83;21062;-72
2022/02/08 16:55:25;;;;;;;;;;;;;;;5.83;88.15;100867.49;1687259;81;21022;-71
2022/02/08 16:58:08;;;;;;;27.75;9.63;;;;;;;5.86;88.13;100886.27;1713365;81;20145;-71
2022/02/08 17:00:24;;;;;;;23.00;7.97;;;;;;;5.86;88.13;100890.23;1715085;81;21023;-71
2022/02/08 17:02:56;;;;;;;28.90;11.48;;;;;;;5.87;88.16;100900.72;1713517;81;21432;-71
2022/02/08 17:05:18;;;;;;;28.45;12.10;;;;;;;5.86;88.16;100897.70;1701932;82;21232;-71
2022/02/08 17:07:44;;;;;;;40.60;19.82;;;;;;;5.87;88.15;100893.25;1671042;84;21654;-71
2022/02/08 17:10:24;;;;;;;29.75;17.57;;;;;;;5.87;88.17;100900.72;1670413;84;21580;-72
2022/02/08 17:12:44;;;;;;;21.50;13.53;;;;;;;5.87;88.17;100884.83;1685961;83;21051;-71
2022/02/08 17:18:16;;;;;;;18.73;8.93;;;;;;;5.88;88.26;100899.72;1693103;83;21098;-72
2022/02/08 17:45:18;;;;;;;35.52;17.75;;;;;;;5.98;88.76;100928.42;1719138;83;21079;-71
2022/02/08 17:49:55;;;;;;;47.08;24.20;;;;;;;6.04;88.84;100937.69;1716598;82;21648;-71